Fairburn, SD

4:24 PM MST on December 21, 2014 (GMT -0700)
Rapid City | Change Station
CLOSE
Current Station
Airport
Location: Rapid City,
Elevation: 3166 ft
Nearby Weather Stations
Active Advisory: Wind Advisory

Elev 3166 ft 44.05 °N, 103.06 °W | Updated 32 minutes ago

Overcast
Overcast
43 °F
Feels Like 38 °F
N
9
Wind Variable Wind from North

Today
High -- | Low -- °F
--% Chance of Precip.
Yesterday
High -- | Low -- °F
Precip. -- in
7:23 AM 4:18 PM
Waning Crescent, 0% visible
Pressure 29.47 in
Visibility 10.0 miles
Clouds Scattered Clouds 6000 ft
Overcast 7500 ft
Windchill 38 °F
Dew Point 26 °F
Humidity 51%
Rainfall 0.00 in
Snow Depth Not available.
UV 0 out of 12
Pollen .10 out of 12
Air Quality Not available.
Flu Activity Not available.
METAR KRAP 212252Z 35008KT 10SM SCT060 OVC075 06/M03 A2940 RMK AO2 RAB2154E2158B35E44 SLP978 P0000 T00611033

More Conditions Fewer Conditions

Pressure 29.47 in
Visibility 10.0 miles
Clouds Scattered Clouds 6000 ft
Overcast 7500 ft
Windchill 38 °F
Dew Point 26 °F
Humidity 51%
Rainfall 0.00 in
Snow Depth Not available.
UV 0 out of 12
Pollen .10 out of 12
Air Quality Not available.
Flu Activity Not available.
METAR KRAP 212252Z 35008KT 10SM SCT060 OVC075 06/M03 A2940 RMK AO2 RAB2154E2158B35E44 SLP978 P0000 T00611033

More Conditions Fewer Conditions

10-Day Weather Forecast

Almanac

Astronomy

Dec. 21, 2014 Rise Set
Actual Time
Civil Twilight
Nautical Twilight
Astronomical Twilight
Moon
Length of Visible Light
Length of Day
Tomorrow will be .
, % of the Moon is Illuminated

Today's Extremes

State Highs State Lows

Community

WunderPhotos

Upload Photos

1,779,502 photos uploaded!

WunderBlogs® & News

Nearby

Air Quality

  Air Quality AQ Index Pollutant
Not available.

Snow Depth

Station Depth Elevation

Earthquake Activity

City Distance Mag. Time & Date
Minimum magnitude displayed is 2.5.

Coastal Water Temperatures

Place Temperature

Nearby Weather Stations